Time;durP1;ratioP1;P1;durP2;ratioP2;P2;SDS_P1;SDS_P2;PMS_P1;PMS_P2;Temp;Humidity;BMP_temperature;BMP_pressure;BME280_temperature;BME280_humidity;BME280_pressure;Samples;Min_cycle;Max_cycle;Signal;HPM_P1;HPM_P2
2023/01/14 00:01:11;;;;;;;0.30;0.30;;;4.70;99.90;;;;;;5110042;27;20226;-70
2023/01/14 00:03:38;;;;;;;0.40;0.40;;;4.70;99.90;;;;;;5110654;27;20694;-70
2023/01/14 00:06:06;;;;;;;0.40;0.35;;;4.70;99.90;;;;;;5109152;28;20229;-70
2023/01/14 00:08:33;;;;;;;0.45;0.43;;;4.50;99.90;;;;;;5121898;27;20197;-70
2023/01/14 00:11:04;;;;;;;0.32;0.32;;;4.50;99.90;;;;;;5128262;27;20324;-69
2023/01/14 00:13:34;;;;;;;0.30;0.30;;;4.40;99.90;;;;;;5115840;27;20198;-71
2023/01/14 00:16:03;;;;;;;1.02;0.80;;;4.30;99.90;;;;;;5120696;27;20283;-70
2023/01/14 00:18:31;;;;;;;0.30;0.28;;;4.20;99.90;;;;;;5119104;27;20198;-70
2023/01/14 00:21:00;;;;;;;0.40;0.40;;;4.30;99.90;;;;;;5108856;28;20244;-70
2023/01/14 00:23:27;;;;;;;0.52;0.45;;;4.10;99.90;;;;;;5108388;27;20407;-70
2023/01/14 00:25:54;;;;;;;1.30;0.30;;;4.30;99.90;;;;;;5109165;28;20229;-70
2023/01/14 00:28:21;;;;;;;0.30;0.30;;;4.20;99.90;;;;;;5123309;27;20685;-70
2023/01/14 00:30:49;;;;;;;0.40;0.40;;;4.20;99.90;;;;;;5124128;27;20312;-70
2023/01/14 00:33:16;;;;;;;0.30;0.20;;;4.20;99.90;;;;;;5120131;27;20206;-71
2023/01/14 00:35:43;;;;;;;0.60;0.57;;;4.20;99.90;;;;;;5127815;27;20221;-70
2023/01/14 00:38:09;;;;;;;0.40;0.40;;;4.30;99.90;;;;;;5123875;27;20231;-70
2023/01/14 00:40:36;;;;;;;0.73;0.73;;;4.30;99.90;;;;;;5108699;28;20210;-70
2023/01/14 00:43:03;;;;;;;0.63;0.45;;;4.20;99.90;;;;;;5120446;27;20225;-70
2023/01/14 00:45:29;;;;;;;0.73;0.73;;;4.30;99.90;;;;;;5128895;27;20221;-71
2023/01/14 00:47:58;;;;;;;0.50;0.20;;;4.20;99.90;;;;;;5128920;27;20211;-70
2023/01/14 00:50:25;;;;;;;2.35;1.05;;;4.20;99.90;;;;;;5127922;27;20218;-70
2023/01/14 00:52:51;;;;;;;0.70;0.40;;;4.30;99.90;;;;;;5128834;27;20201;-70
2023/01/14 00:55:18;;;;;;;0.30;0.20;;;4.30;99.90;;;;;;5128715;27;20198;-70
2023/01/14 00:57:45;;;;;;;4.40;1.10;;;4.20;99.90;;;;;;5128774;27;20193;-70
2023/01/14 01:00:13;;;;;;;0.52;0.52;;;4.20;99.90;;;;;;5127132;27;20211;-70
2023/01/14 01:02:40;;;;;;;1.48;0.35;;;4.20;99.90;;;;;;5128076;27;20232;-70
2023/01/14 01:05:09;;;;;;;0.40;0.30;;;3.90;99.90;;;;;;5128030;27;20208;-70
2023/01/14 01:07:37;;;;;;;0.50;0.50;;;4.10;99.90;;;;;;5128230;27;20220;-69
2023/01/14 01:10:05;;;;;;;0.30;0.30;;;4.20;99.90;;;;;;5127661;27;20572;-70
2023/01/14 01:12:32;;;;;;;0.30;0.20;;;4.30;99.90;;;;;;5127996;27;20193;-70
2023/01/14 01:14:59;;;;;;;0.40;0.40;;;4.20;99.90;;;;;;5128444;27;20189;-70
2023/01/14 01:17:26;;;;;;;1.95;0.40;;;4.30;99.90;;;;;;5127676;27;20221;-71
2023/01/14 01:19:54;;;;;;;5.03;1.38;;;4.30;99.90;;;;;;5127570;27;20221;-70
2023/01/14 01:22:22;;;;;;;0.30;0.25;;;4.20;99.90;;;;;;5128299;27;20231;-71
2023/01/14 01:24:51;;;;;;;1.15;0.40;;;4.20;99.90;;;;;;5127013;27;20194;-70
2023/01/14 01:27:18;;;;;;;0.30;0.30;;;4.20;99.90;;;;;;5127991;27;20308;-70
2023/01/14 01:29:44;;;;;;;0.30;0.20;;;4.20;99.90;;;;;;5126960;27;20482;-71
2023/01/14 01:32:11;;;;;;;0.90;0.90;;;5.20;99.90;;;;;;5126704;27;20217;-71
2023/01/14 01:34:38;;;;;;;0.40;0.40;;;4.30;99.90;;;;;;5128232;27;20216;-69
2023/01/14 01:37:05;;;;;;;1.35;0.50;;;4.30;99.90;;;;;;5124131;27;20218;-69
2023/01/14 01:39:33;;;;;;;0.32;0.32;;;4.30;99.90;;;;;;5118429;27;20203;-70
2023/01/14 01:41:59;;;;;;;0.50;0.50;;;4.40;99.90;;;;;;5127406;27;20228;-71
2023/01/14 01:45:03;;;;;;;0.40;0.30;;;4.30;99.90;;;;;;5127641;27;20204;-70
2023/01/14 01:47:30;;;;;;;0.50;0.40;;;4.30;99.90;;;;;;5127990;27;20235;-70
2023/01/14 01:49:57;;;;;;;0.40;0.30;;;4.20;99.90;;;;;;5126546;27;20352;-70
2023/01/14 01:52:28;;;;;;;0.45;0.45;;;4.20;99.90;;;;;;5128058;27;20216;-70
2023/01/14 01:54:59;;;;;;;0.30;0.20;;;4.20;99.90;;;;;;5127345;27;20197;-70
2023/01/14 01:57:26;;;;;;;0.60;0.50;;;4.20;99.90;;;;;;5127482;27;20217;-71
2023/01/14 01:59:56;;;;;;;0.35;0.35;;;4.30;99.90;;;;;;5127401;27;20671;-70
2023/01/14 02:02:24;;;;;;;0.60;0.40;;;4.20;99.90;;;;;;5126041;28;20239;-69
2023/01/14 02:04:51;;;;;;;3.80;1.30;;;4.20;99.90;;;;;;5128164;28;20668;-69
2023/01/14 02:07:21;;;;;;;0.40;0.30;;;4.20;99.90;;;;;;5127769;28;20213;-70
2023/01/14 02:09:50;;;;;;;0.40;0.35;;;4.20;99.90;;;;;;5116399;28;20224;-69
2023/01/14 02:12:37;;;;;;;0.30;0.20;;;4.10;99.90;;;;;;5111580;28;20683;-70
2023/01/14 02:15:24;;;;;;;0.60;0.60;;;4.20;99.90;;;;;;5128642;28;20726;-70
2023/01/14 02:18:04;;;;;;;1.05;0.95;;;4.10;99.90;;;;;;5125990;28;20674;-71
2023/01/14 02:20:37;;;;;;;0.30;0.20;;;4.20;99.90;;;;;;5110616;28;20213;-70
2023/01/14 02:23:39;;;;;;;0.30;0.28;;;4.20;99.90;;;;;;5128298;28;20221;-70
2023/01/14 02:26:55;;;;;;;0.30;0.20;;;4.20;99.90;;;;;;5127621;28;20793;-70
2023/01/14 02:29:46;;;;;;;4.10;1.38;;;4.20;99.90;;;;;;5080776;28;20213;-70
2023/01/14 02:32:20;;;;;;;0.30;0.20;;;4.10;99.90;;;;;;5127746;28;20566;-70
2023/01/14 02:34:55;;;;;;;0.40;0.32;;;4.00;99.90;;;;;;5128461;27;20250;-70
2023/01/14 02:37:28;;;;;;;0.30;0.20;;;4.00;99.90;;;;;;5110568;27;20220;-70
2023/01/14 02:40:01;;;;;;;0.40;0.40;;;4.00;99.90;;;;;;5116664;27;20273;-70
2023/01/14 02:45:28;;;;;;;0.30;0.20;;;4.10;99.90;;;;;;5131569;27;20204;-70
2023/01/14 02:48:00;;;;;;;0.70;0.45;;;4.00;99.90;;;;;;5130183;27;20212;-72
2023/01/14 02:50:28;;;;;;;0.30;0.20;;;4.00;99.90;;;;;;5130975;27;20294;-71
2023/01/14 02:52:56;;;;;;;0.50;0.30;;;4.00;99.90;;;;;;5114552;27;20316;-70
2023/01/14 02:55:32;;;;;;;0.40;0.30;;;3.90;99.90;;;;;;5131281;27;20218;-70
2023/01/14 02:58:40;;;;;;;0.47;0.30;;;3.90;99.90;;;;;;5129737;27;20201;-70
2023/01/14 03:01:26;;;;;;;0.30;0.20;;;3.90;99.90;;;;;;5046855;28;20633;-70
2023/01/14 03:04:30;;;;;;;0.80;0.50;;;3.90;99.90;;;;;;5105936;27;20233;-70
2023/01/14 03:07:06;;;;;;;0.30;0.20;;;3.90;99.90;;;;;;5102711;27;20324;-70
2023/01/14 03:09:40;;;;;;;0.60;0.40;;;3.80;99.90;;;;;;5110621;28;20198;-70
2023/01/14 03:12:14;;;;;;;2.45;1.33;;;3.60;99.90;;;;;;5111591;27;20304;-70
2023/01/14 03:14:47;;;;;;;0.30;0.30;;;3.80;99.90;;;;;;5131904;27;20196;-70
2023/01/14 03:17:22;;;;;;;0.98;0.98;;;3.80;99.90;;;;;;5131095;27;20225;-69
2023/01/14 03:19:58;;;;;;;0.30;0.30;;;3.90;99.90;;;;;;5130460;27;20211;-70
2023/01/14 03:22:28;;;;;;;0.50;0.40;;;3.90;99.90;;;;;;5130748;27;20273;-70
2023/01/14 03:24:58;;;;;;;1.15;1.05;;;3.90;99.90;;;;;;5114927;27;20196;-70
2023/01/14 03:27:31;;;;;;;0.30;0.20;;;4.00;99.90;;;;;;5131109;27;20697;-70
2023/01/14 03:30:04;;;;;;;0.30;0.20;;;4.00;99.90;;;;;;5130140;27;20202;-70
2023/01/14 03:32:37;;;;;;;0.50;0.50;;;3.90;99.90;;;;;;5130391;27;20204;-70
2023/01/14 03:35:08;;;;;;;0.40;0.30;;;4.00;99.90;;;;;;5130136;27;20296;-71
2023/01/14 03:37:38;;;;;;;0.45;0.45;;;4.00;99.90;;;;;;5126317;27;20693;-71
2023/01/14 03:40:11;;;;;;;0.95;0.40;;;4.00;99.90;;;;;;5125142;27;20197;-71
2023/01/14 03:42:45;;;;;;;0.45;0.45;;;3.90;99.90;;;;;;5130606;27;20263;-69
2023/01/14 03:45:18;;;;;;;0.30;0.20;;;4.00;99.90;;;;;;5130952;27;20910;-70
2023/01/14 03:47:48;;;;;;;0.55;0.40;;;4.00;99.90;;;;;;5128985;27;20190;-70
2023/01/14 03:50:18;;;;;;;0.30;0.20;;;4.00;99.90;;;;;;5130127;27;20197;-69
2023/01/14 03:52:56;;;;;;;1.05;0.52;;;4.00;99.90;;;;;;5130507;27;20197;-69
2023/01/14 03:55:34;;;;;;;0.30;0.20;;;4.10;99.90;;;;;;5130690;27;20227;-70
2023/01/14 03:58:09;;;;;;;0.45;0.30;;;4.00;99.90;;;;;;5128444;27;20189;-71
2023/01/14 04:00:41;;;;;;;0.30;0.20;;;4.00;99.90;;;;;;5130553;27;20635;-69
2023/01/14 04:03:12;;;;;;;0.30;0.20;;;4.00;99.90;;;;;;5130114;27;20233;-69
2023/01/14 04:05:40;;;;;;;0.30;0.25;;;4.00;99.90;;;;;;5130016;27;20221;-70
2023/01/14 04:08:07;;;;;;;0.30;0.20;;;4.00;99.90;;;;;;5129417;27;20201;-69
2023/01/14 04:10:35;;;;;;;5.28;2.47;;;4.20;99.90;;;;;;5129800;27;20574;-70
2023/01/14 04:15:45;;;;;;;0.30;0.28;;;4.00;99.90;;;;;;5130717;27;20221;-70
2023/01/14 04:18:14;;;;;;;0.30;0.20;;;4.00;99.90;;;;;;5129034;27;20265;-69
2023/01/14 04:20:41;;;;;;;0.30;0.20;;;4.00;99.90;;;;;;5129808;27;20290;-70
2023/01/14 04:23:07;;;;;;;0.30;0.20;;;4.00;99.90;;;;;;5129283;27;20217;-70
2023/01/14 04:25:34;;;;;;;0.30;0.30;;;4.00;99.90;;;;;;5130068;27;20632;-70
2023/01/14 04:28:01;;;;;;;0.30;0.30;;;4.00;99.90;;;;;;5128889;27;20189;-70
2023/01/14 04:30:28;;;;;;;0.30;0.28;;;4.00;99.90;;;;;;5129617;27;20706;-70
2023/01/14 04:32:54;;;;;;;0.30;0.20;;;4.00;99.90;;;;;;5129271;27;20204;-70
2023/01/14 04:35:22;;;;;;;0.30;0.20;;;4.00;99.90;;;;;;5127542;27;20209;-71
2023/01/14 04:37:50;;;;;;;0.30;0.20;;;4.10;99.90;;;;;;5122272;27;20208;-70
2023/01/14 04:40:18;;;;;;;3.33;0.40;;;4.10;99.90;;;;;;5129011;27;20312;-69
2023/01/14 04:42:43;;;;;;;1.90;0.52;;;4.10;99.90;;;;;;5126555;27;20213;-69
2023/01/14 04:45:11;;;;;;;0.50;0.40;;;4.10;99.90;;;;;;5109349;28;20743;-71
2023/01/14 04:47:39;;;;;;;0.50;0.30;;;4.10;99.90;;;;;;5110084;27;20202;-70
2023/01/14 04:52:48;;;;;;;0.30;0.30;;;4.10;99.90;;;;;;5108006;28;20206;-70
2023/01/14 04:55:15;;;;;;;1.13;0.50;;;4.10;99.90;;;;;;5108971;27;20198;-70
2023/01/14 04:57:42;;;;;;;0.30;0.20;;;4.10;99.90;;;;;;5117685;27;20197;-70
2023/01/14 05:00:10;;;;;;;0.30;0.20;;;4.20;99.90;;;;;;5126993;27;20201;-69
2023/01/14 05:02:37;;;;;;;0.30;0.28;;;4.20;99.90;;;;;;5124804;27;20218;-69
2023/01/14 05:05:04;;;;;;;0.30;0.20;;;5.60;99.90;;;;;;5108941;28;20553;-70
2023/01/14 05:07:31;;;;;;;0.30;0.20;;;4.20;99.90;;;;;;5108684;28;20603;-70
2023/01/14 05:09:59;;;;;;;0.30;0.25;;;4.10;99.90;;;;;;5108221;28;20210;-69
2023/01/14 05:12:26;;;;;;;0.30;0.30;;;4.10;99.90;;;;;;5112711;27;20265;-71
2023/01/14 05:14:53;;;;;;;0.30;0.20;;;4.10;99.90;;;;;;5129151;27;20201;-70
2023/01/14 05:17:19;;;;;;;0.30;0.22;;;4.20;99.90;;;;;;5126850;27;20580;-70
2023/01/14 05:19:46;;;;;;;0.30;0.20;;;4.10;99.90;;;;;;5107898;28;20201;-71
2023/01/14 05:22:13;;;;;;;0.30;0.20;;;4.00;99.90;;;;;;5109371;27;20247;-70
2023/01/14 05:24:40;;;;;;;0.80;0.40;;;3.90;99.90;;;;;;5108666;28;20190;-70
2023/01/14 05:27:08;;;;;;;0.30;0.30;;;3.90;99.90;;;;;;5108516;28;20236;-69
2023/01/14 05:29:34;;;;;;;0.30;0.20;;;3.90;99.90;;;;;;5108427;27;20275;-70
2023/01/14 05:32:01;;;;;;;0.30;0.20;;;3.90;99.90;;;;;;5113507;27;20218;-70
2023/01/14 05:34:30;;;;;;;0.40;0.35;;;4.00;99.90;;;;;;5128859;27;20220;-70
2023/01/14 05:36:57;;;;;;;0.30;0.20;;;4.00;99.90;;;;;;5122660;27;20213;-71
2023/01/14 05:39:24;;;;;;;0.40;0.40;;;4.00;99.90;;;;;;5117449;27;20204;-70
2023/01/14 05:47:21;;;;;;;0.50;0.50;;;3.80;99.90;;;;;;5128097;27;20221;-70
2023/01/14 05:49:48;;;;;;;0.47;0.40;;;3.90;99.90;;;;;;5127769;27;20207;-70
2023/01/14 05:52:14;;;;;;;0.30;0.30;;;3.90;99.90;;;;;;5128300;27;20213;-70
2023/01/14 05:54:41;;;;;;;0.30;0.30;;;3.90;99.90;;;;;;5128128;27;20207;-69
2023/01/14 05:57:13;;;;;;;0.30;0.20;;;4.00;99.90;;;;;;5128051;27;20217;-69
2023/01/14 05:59:41;;;;;;;0.30;0.20;;;3.90;99.90;;;;;;5127932;27;20197;-70
2023/01/14 06:07:52;;;;;;;1.80;0.35;;;4.00;99.90;;;;;;5126885;28;20983;-70
2023/01/14 06:10:19;;;;;;;0.88;0.47;;;4.00;99.90;;;;;;5129325;27;20193;-71
2023/01/14 06:12:58;;;;;;;0.30;0.20;;;4.00;99.90;;;;;;5132206;27;20193;-70
2023/01/14 06:15:32;;;;;;;0.40;0.32;;;4.10;99.90;;;;;;5132086;27;20219;-71
2023/01/14 06:18:09;;;;;;;0.30;0.20;;;4.00;99.90;;;;;;5132120;27;20193;-74
2023/01/14 06:20:36;;;;;;;0.82;0.82;;;3.90;99.90;;;;;;5132128;27;20221;-69
2023/01/14 06:23:03;;;;;;;0.77;0.70;;;4.00;99.90;;;;;;5132063;27;20213;-70
2023/01/14 06:25:29;;;;;;;1.80;1.15;;;4.00;99.90;;;;;;5132315;27;20706;-70
2023/01/14 06:27:57;;;;;;;1.20;0.63;;;4.60;99.90;;;;;;5130875;27;20211;-70
2023/01/14 06:30:24;;;;;;;0.30;0.20;;;4.00;99.90;;;;;;5131362;27;20244;-69
2023/01/14 06:32:52;;;;;;;5.70;1.38;;;4.10;99.90;;;;;;5132180;27;20201;-71
2023/01/14 06:35:18;;;;;;;0.40;0.30;;;4.10;99.90;;;;;;5131382;27;20694;-70
2023/01/14 06:37:45;;;;;;;0.30;0.30;;;4.10;99.90;;;;;;5128293;27;20526;-70
2023/01/14 06:40:14;;;;;;;0.30;0.20;;;4.20;99.90;;;;;;5113739;27;20495;-69
2023/01/14 06:42:41;;;;;;;0.40;0.40;;;4.20;99.90;;;;;;5117813;27;20205;-70
2023/01/14 06:45:08;;;;;;;0.38;0.32;;;4.10;99.90;;;;;;5132374;27;20288;-70
2023/01/14 06:47:35;;;;;;;0.30;0.30;;;4.10;99.90;;;;;;5131659;27;20193;-70
2023/01/14 06:50:03;;;;;;;0.43;0.43;;;4.10;99.90;;;;;;5131098;27;20563;-70
2023/01/14 06:52:30;;;;;;;1.77;1.67;;;4.10;99.90;;;;;;5131283;27;20228;-70
2023/01/14 06:54:58;;;;;;;0.38;0.38;;;4.20;99.90;;;;;;5132041;27;20635;-70
2023/01/14 06:57:25;;;;;;;0.47;0.47;;;4.20;99.90;;;;;;5131113;27;20369;-70
2023/01/14 06:59:52;;;;;;;0.30;0.20;;;4.20;99.90;;;;;;5129884;27;20285;-69
2023/01/14 07:02:19;;;;;;;0.60;0.50;;;4.20;99.90;;;;;;5129708;27;20224;-70
2023/01/14 07:04:46;;;;;;;0.30;0.20;;;;;;;;;;5131314;27;20301;-70
2023/01/14 07:07:14;;;;;;;0.30;0.20;;;4.20;99.90;;;;;;5130076;27;20226;-70
2023/01/14 07:09:42;;;;;;;0.30;0.30;;;4.30;99.90;;;;;;5129297;27;20197;-69
2023/01/14 07:12:08;;;;;;;0.40;0.32;;;4.50;99.90;;;;;;5130196;27;20718;-70
2023/01/14 07:14:35;;;;;;;0.30;0.30;;;4.30;99.90;;;;;;5130089;27;20199;-70
2023/01/14 07:17:02;;;;;;;0.40;0.30;;;4.30;99.90;;;;;;5130010;27;20808;-69
2023/01/14 07:19:29;;;;;;;1.77;0.40;;;4.30;99.90;;;;;;5129450;27;20713;-70
2023/01/14 07:21:56;;;;;;;0.30;0.20;;;4.30;99.90;;;;;;5130381;27;20782;-72
2023/01/14 07:24:24;;;;;;;2.50;1.48;;;4.40;99.90;;;;;;5130134;27;20217;-70
2023/01/14 07:26:51;;;;;;;0.40;0.40;;;4.40;99.90;;;;;;5130887;27;20221;-70
2023/01/14 07:29:17;;;;;;;0.30;0.20;;;4.40;99.90;;;;;;5129603;27;20659;-69
2023/01/14 07:31:44;;;;;;;0.50;0.30;;;4.50;99.90;;;;;;5130792;27;20600;-69
2023/01/14 07:34:11;;;;;;;0.30;0.30;;;4.50;99.90;;;;;;5130053;27;20197;-70
2023/01/14 07:36:38;;;;;;;0.30;0.20;;;4.50;99.90;;;;;;5130016;27;20217;-70
2023/01/14 07:39:04;;;;;;;0.40;0.30;;;4.50;99.90;;;;;;5127038;27;20559;-70
2023/01/14 07:41:33;;;;;;;0.52;0.52;;;4.70;99.90;;;;;;5130003;27;20571;-71
2023/01/14 07:44:00;;;;;;;0.30;0.20;;;4.60;99.90;;;;;;5130837;27;20233;-69
2023/01/14 07:46:27;;;;;;;2.25;1.10;;;4.60;99.90;;;;;;5130360;27;20254;-70
2023/01/14 07:48:54;;;;;;;3.75;0.63;;;4.70;99.90;;;;;;5129094;27;20201;-70
2023/01/14 07:51:23;;;;;;;0.57;0.57;;;4.70;99.90;;;;;;5129275;27;20734;-69
2023/01/14 07:53:50;;;;;;;3.22;0.95;;;4.90;99.90;;;;;;5129114;27;20841;-70
2023/01/14 07:56:17;;;;;;;0.75;0.63;;;4.80;99.90;;;;;;5126756;27;20217;-70
2023/01/14 07:58:47;;;;;;;0.40;0.40;;;4.80;99.90;;;;;;5125714;27;20209;-69
2023/01/14 08:01:14;;;;;;;1.13;0.82;;;4.90;99.90;;;;;;5130181;27;20926;-69
2023/01/14 08:03:40;;;;;;;0.70;0.63;;;4.50;99.90;;;;;;5129570;27;20231;-70
2023/01/14 08:06:08;;;;;;;0.40;0.32;;;4.90;99.90;;;;;;5129698;27;20217;-70
2023/01/14 08:08:35;;;;;;;0.95;0.60;;;4.90;99.90;;;;;;5128594;27;20669;-70
2023/01/14 08:11:02;;;;;;;0.30;0.20;;;5.10;99.90;;;;;;5129840;27;20225;-70
2023/01/14 08:13:30;;;;;;;0.30;0.20;;;5.10;99.90;;;;;;5130327;27;20197;-70
2023/01/14 08:16:01;;;;;;;0.52;0.52;;;5.00;99.90;;;;;;5130422;27;20241;-70
2023/01/14 08:18:31;;;;;;;0.40;0.40;;;5.10;99.90;;;;;;5129038;27;20196;-70
2023/01/14 08:20:58;;;;;;;0.47;0.45;;;5.10;99.90;;;;;;5130104;27;20220;-71
2023/01/14 08:23:25;;;;;;;4.43;0.82;;;5.10;99.90;;;;;;5129749;27;20691;-71
2023/01/14 08:25:52;;;;;;;0.30;0.20;;;5.20;99.90;;;;;;5130278;27;20221;-70
2023/01/14 08:28:20;;;;;;;0.50;0.40;;;5.30;99.90;;;;;;5128427;27;20200;-71
2023/01/14 08:30:46;;;;;;;0.40;0.30;;;5.30;99.90;;;;;;5129943;27;20221;-70
2023/01/14 08:33:15;;;;;;;0.85;0.57;;;5.30;99.90;;;;;;5128171;27;20193;-69
2023/01/14 08:35:42;;;;;;;4.05;0.60;;;5.50;99.90;;;;;;5110047;27;20218;-70
2023/01/14 08:38:09;;;;;;;0.47;0.47;;;5.50;99.90;;;;;;5116108;27;20292;-71
2023/01/14 08:40:35;;;;;;;0.47;0.30;;;6.00;99.90;;;;;;5128951;27;20217;-70
2023/01/14 08:43:02;;;;;;;0.40;0.40;;;5.60;99.90;;;;;;5129204;27;20200;-70
2023/01/14 08:45:29;;;;;;;0.50;0.30;;;5.50;99.90;;;;;;5128457;27;20778;-70
2023/01/14 08:47:57;;;;;;;0.40;0.30;;;5.70;99.90;;;;;;5129435;27;20193;-70
2023/01/14 08:50:25;;;;;;;0.50;0.50;;;5.80;99.90;;;;;;5129026;27;20370;-70
2023/01/14 08:52:52;;;;;;;0.30;0.20;;;5.80;99.90;;;;;;5129566;27;20193;-71
2023/01/14 08:55:19;;;;;;;0.30;0.30;;;5.80;99.90;;;;;;5129590;27;20201;-71
2023/01/14 08:57:45;;;;;;;0.40;0.35;;;5.90;99.90;;;;;;5129260;27;20194;-70
2023/01/14 09:00:13;;;;;;;0.30;0.20;;;6.00;99.90;;;;;;5128438;27;20198;-71
2023/01/14 09:02:40;;;;;;;1.02;0.40;;;6.00;99.90;;;;;;5128950;27;20572;-70
2023/01/14 09:05:08;;;;;;;0.60;0.55;;;5.90;99.90;;;;;;5129194;27;20671;-71
2023/01/14 09:18:35;;;;;;;0.30;0.30;;;6.20;99.90;;;;;;5127557;27;20197;-70
2023/01/14 09:21:02;;;;;;;0.60;0.60;;;6.20;99.90;;;;;;5128280;27;20239;-70
2023/01/14 09:23:30;;;;;;;0.63;0.63;;;6.20;99.90;;;;;;5128813;27;20218;-71
2023/01/14 09:25:57;;;;;;;0.50;0.50;;;6.30;99.90;;;;;;5128509;27;20228;-71
2023/01/14 09:28:24;;;;;;;4.63;0.50;;;6.40;99.90;;;;;;5126901;27;20193;-71
2023/01/14 09:30:50;;;;;;;0.98;0.90;;;6.40;99.90;;;;;;5129097;27;20236;-70
2023/01/14 09:33:17;;;;;;;0.43;0.40;;;6.40;99.90;;;;;;5128622;27;20200;-72
2023/01/14 09:35:44;;;;;;;0.30;0.30;;;6.00;99.90;;;;;;5128405;27;20579;-70
2023/01/14 09:38:11;;;;;;;0.63;0.40;;;6.50;99.90;;;;;;5124133;27;20217;-72
2023/01/14 09:40:40;;;;;;;0.95;0.35;;;6.50;99.90;;;;;;5123440;27;20221;-70
2023/01/14 09:43:16;;;;;;;0.43;0.43;;;6.60;99.90;;;;;;5128795;27;20204;-70
2023/01/14 09:45:43;;;;;;;0.30;0.30;;;6.60;99.90;;;;;;5128153;27;20239;-70
2023/01/14 09:48:15;;;;;;;0.88;0.57;;;6.50;99.90;;;;;;5127505;27;20205;-71
2023/01/14 09:50:53;;;;;;;0.40;0.30;;;6.60;99.90;;;;;;5128096;27;20223;-70
2023/01/14 09:53:36;;;;;;;1.30;0.68;;;6.70;99.90;;;;;;5127837;27;20208;-71
2023/01/14 09:56:11;;;;;;;0.60;0.28;;;6.70;99.90;;;;;;5127758;27;20224;-69
2023/01/14 09:58:43;;;;;;;0.30;0.20;;;6.90;99.90;;;;;;5125989;27;20199;-70
2023/01/14 10:01:16;;;;;;;0.47;0.40;;;7.00;99.90;;;;;;5128134;27;20236;-71
2023/01/14 10:03:52;;;;;;;0.43;0.35;;;6.90;99.90;;;;;;5114266;27;20204;-70
2023/01/14 10:06:19;;;;;;;0.68;0.52;;;7.00;99.90;;;;;;5107843;28;20253;-70
2023/01/14 10:08:49;;;;;;;0.47;0.40;;;7.00;99.90;;;;;;5123541;28;20685;-71
2023/01/14 10:11:18;;;;;;;0.30;0.20;;;6.90;99.90;;;;;;5128273;28;20227;-70
2023/01/14 10:13:53;;;;;;;0.52;0.45;;;7.00;99.90;;;;;;5121591;28;20200;-70
2023/01/14 10:16:23;;;;;;;1.23;1.07;;;7.00;99.90;;;;;;5125820;28;20693;-70
2023/01/14 10:18:54;;;;;;;0.40;0.30;;;7.20;99.90;;;;;;5127373;28;20619;-70
2023/01/14 10:21:41;;;;;;;0.43;0.25;;;7.20;99.90;;;;;;5127819;28;20649;-72
2023/01/14 10:24:12;;;;;;;1.43;0.60;;;7.20;99.90;;;;;;5127234;28;20221;-70
2023/01/14 10:26:41;;;;;;;2.63;0.40;;;7.20;99.90;;;;;;5127620;28;20650;-71
2023/01/14 10:29:14;;;;;;;0.40;0.23;;;7.30;99.90;;;;;;5127158;28;20633;-70
2023/01/14 10:31:44;;;;;;;0.60;0.50;;;7.30;99.90;;;;;;5127891;28;20643;-70
2023/01/14 10:34:13;;;;;;;3.15;0.60;;;7.30;99.90;;;;;;5127896;28;20655;-71
2023/01/14 10:36:40;;;;;;;0.40;0.30;;;7.50;99.90;;;;;;5124462;28;20222;-71
2023/01/14 10:39:11;;;;;;;0.40;0.40;;;7.50;99.90;;;;;;5114257;28;20637;-70
2023/01/14 10:41:51;;;;;;;0.93;0.90;;;7.50;99.90;;;;;;5127418;28;20653;-70
2023/01/14 10:44:23;;;;;;;0.30;0.20;;;7.60;99.90;;;;;;5122696;28;20754;-70
2023/01/14 10:46:52;;;;;;;1.15;0.77;;;7.60;99.90;;;;;;5108875;28;20237;-71
2023/01/14 10:49:23;;;;;;;0.30;0.20;;;7.70;99.90;;;;;;5127131;28;20286;-70
2023/01/14 10:51:50;;;;;;;2.93;0.60;;;7.70;99.90;;;;;;5107689;28;20647;-70
2023/01/14 10:54:19;;;;;;;0.50;0.33;;;7.80;99.90;;;;;;5116192;28;20643;-70
2023/01/14 10:56:53;;;;;;;0.50;0.40;;;7.70;99.90;;;;;;5128958;27;20649;-71
2023/01/14 10:59:42;;;;;;;1.27;0.70;;;7.70;99.90;;;;;;5131149;27;20628;-70
2023/01/14 11:02:21;;;;;;;1.80;1.10;;;7.70;99.90;;;;;;5131475;27;20676;-71
2023/01/14 11:04:49;;;;;;;0.30;0.27;;;7.70;99.90;;;;;;5131673;27;20658;-70
2023/01/14 11:07:26;;;;;;;0.30;0.20;;;7.80;99.90;;;;;;5130519;27;20654;-71
2023/01/14 11:09:53;;;;;;;0.50;0.50;;;7.90;99.90;;;;;;5130546;27;20630;-71
2023/01/14 11:12:30;;;;;;;0.40;0.30;;;8.00;99.90;;;;;;5131003;27;21010;-71
2023/01/14 11:14:57;;;;;;;0.37;0.30;;;7.90;99.90;;;;;;5131485;27;20622;-71
2023/01/14 11:17:26;;;;;;;0.40;0.40;;;7.90;99.90;;;;;;5130279;27;20631;-71
2023/01/14 11:20:13;;;;;;;0.60;0.60;;;7.90;99.90;;;;;;5130516;27;20623;-70
2023/01/14 11:22:39;;;;;;;0.40;0.33;;;8.00;99.90;;;;;;5129979;27;20646;-71
2023/01/14 11:25:21;;;;;;;1.23;0.30;;;8.10;99.90;;;;;;5131124;27;20666;-70
2023/01/14 11:27:51;;;;;;;0.40;0.30;;;8.10;99.90;;;;;;5129965;27;21180;-72
2023/01/14 11:30:19;;;;;;;6.10;0.60;;;8.10;99.90;;;;;;5129725;27;20625;-71
2023/01/14 11:32:49;;;;;;;0.40;0.20;;;8.00;99.90;;;;;;5130861;27;20730;-70
2023/01/14 11:35:20;;;;;;;6.80;0.40;;;8.10;99.90;;;;;;5130752;27;20627;-71
2023/01/14 11:37:48;;;;;;;0.40;0.30;;;8.10;99.90;;;;;;5129137;27;20998;-70
2023/01/14 11:40:23;;;;;;;0.40;0.30;;;8.20;99.90;;;;;;5115483;27;20642;-71
2023/01/14 11:42:51;;;;;;;0.30;0.30;;;8.30;99.90;;;;;;5121016;27;20626;-70
2023/01/14 11:45:21;;;;;;;0.30;0.27;;;8.20;99.90;;;;;;5110239;27;20663;-70
2023/01/14 11:47:49;;;;;;;0.37;0.37;;;8.20;99.90;;;;;;5127216;27;20623;-71
2023/01/14 11:50:19;;;;;;;0.40;0.33;;;8.20;99.90;;;;;;5123858;27;20628;-70
2023/01/14 11:53:01;;;;;;;0.97;0.30;;;8.20;99.90;;;;;;5118639;27;20633;-70
2023/01/14 11:55:31;;;;;;;0.40;0.20;;;8.20;99.90;;;;;;5129522;27;21001;-70
2023/01/14 11:58:04;;;;;;;1.60;0.50;;;8.30;99.90;;;;;;5117267;27;20627;-70
2023/01/14 12:00:33;;;;;;;0.90;0.30;;;8.30;99.90;;;;;;5109687;27;20662;-71
2023/01/14 12:03:05;;;;;;;0.40;0.33;;;8.30;99.90;;;;;;5120166;27;20621;-70
2023/01/14 12:05:33;;;;;;;4.10;0.30;;;8.30;99.90;;;;;;5129937;27;20793;-71
2023/01/14 12:08:06;;;;;;;0.30;0.20;;;8.30;99.90;;;;;;5117015;27;21001;-70
2023/01/14 12:10:37;;;;;;;0.50;0.50;;;8.30;99.90;;;;;;5109741;27;20656;-71
2023/01/14 12:18:50;;;;;;;0.40;0.40;;;8.30;99.90;;;;;;5116165;27;20619;-71
2023/01/14 12:21:21;;;;;;;0.97;0.43;;;8.50;99.90;;;;;;5130613;27;20753;-70
2023/01/14 12:23:55;;;;;;;0.30;0.30;;;8.30;99.90;;;;;;5129828;27;21175;-71
2023/01/14 12:26:26;;;;;;;0.40;0.40;;;8.80;99.90;;;;;;5129567;27;20670;-71
2023/01/14 12:29:00;;;;;;;0.70;0.30;;;8.30;99.90;;;;;;5122041;27;20627;-70
2023/01/14 12:31:35;;;;;;;2.10;0.70;;;8.30;99.90;;;;;;5112401;27;20653;-70
2023/01/14 12:34:10;;;;;;;0.47;0.47;;;8.30;99.90;;;;;;5114556;27;20627;-71
2023/01/14 12:36:44;;;;;;;0.40;0.30;;;8.20;99.90;;;;;;5112670;27;20656;-71
2023/01/14 12:47:59;;;;;;;0.30;0.30;;;8.30;99.90;;;;;;5129677;27;20763;-70
2023/01/14 12:50:29;;;;;;;0.67;0.37;;;8.30;99.90;;;;;;5129140;27;20666;-70
2023/01/14 12:52:56;;;;;;;0.87;0.30;;;;;;;;;;5129625;27;20634;-70
2023/01/14 12:55:28;;;;;;;0.50;0.47;;;8.40;99.80;;;;;;5128545;27;20741;-71
2023/01/14 12:57:58;;;;;;;0.50;0.47;;;8.40;99.90;;;;;;5128028;27;20833;-72
2023/01/14 13:00:29;;;;;;;0.30;0.20;;;8.40;99.90;;;;;;5127236;27;20580;-71
2023/01/14 13:02:59;;;;;;;1.05;0.80;;;8.40;99.90;;;;;;5128991;27;20633;-71
2023/01/14 13:05:28;;;;;;;1.07;0.80;;;8.40;99.90;;;;;;5128419;27;20256;-71
2023/01/14 13:07:59;;;;;;;15.93;0.73;;;8.30;99.90;;;;;;5128410;27;20615;-70
2023/01/14 13:10:32;;;;;;;1.63;0.80;;;8.50;99.90;;;;;;5128448;27;20642;-71
2023/01/14 13:13:00;;;;;;;2.10;0.60;;;8.40;99.60;;;;;;5128543;27;21268;-71
2023/01/14 13:15:32;;;;;;;0.60;0.60;;;8.40;99.90;;;;;;5108454;28;21205;-71
2023/01/14 13:18:00;;;;;;;0.60;0.50;;;8.50;99.90;;;;;;5123385;27;20641;-69
2023/01/14 13:20:52;;;;;;;1.17;0.57;;;8.50;99.60;;;;;;5127610;27;20674;-71
2023/01/14 13:23:56;;;;;;;0.30;0.20;;;8.50;99.40;;;;;;5118193;27;20639;-71
2023/01/14 13:26:55;;;;;;;0.30;0.23;;;8.50;99.20;;;;;;5128774;27;21277;-70
2023/01/14 13:29:24;;;;;;;0.50;0.30;;;8.50;99.20;;;;;;5120619;27;20695;-71
2023/01/14 13:31:54;;;;;;;1.07;0.70;;;8.60;98.90;;;;;;5128518;27;20639;-70
2023/01/14 13:34:35;;;;;;;0.57;0.30;;;8.60;99.20;;;;;;5118274;27;20650;-70
2023/01/14 13:37:35;;;;;;;0.50;0.50;;;8.50;98.80;;;;;;5126329;27;20646;-71
2023/01/14 13:40:15;;;;;;;6.50;0.80;;;8.60;99.10;;;;;;5112281;27;20682;-69
2023/01/14 13:42:42;;;;;;;0.63;0.20;;;8.60;98.40;;;;;;5127295;27;21195;-70
2023/01/14 13:45:26;;;;;;;0.40;0.33;;;8.60;98.70;;;;;;5128593;27;20659;-70
2023/01/14 13:47:56;;;;;;;1.00;0.50;;;8.60;98.40;;;;;;5128772;27;20626;-71
2023/01/14 13:50:26;;;;;;;1.57;1.47;;;8.60;98.60;;;;;;5127270;27;20643;-70
2023/01/14 13:52:59;;;;;;;0.70;0.70;;;8.60;98.70;;;;;;5128307;27;20627;-70
2023/01/14 13:55:30;;;;;;;0.73;0.60;;;8.60;98.60;;;;;;5128391;27;20647;-70
2023/01/14 13:58:00;;;;;;;2.00;0.63;;;8.60;98.20;;;;;;5128129;27;21187;-70
2023/01/14 14:00:44;;;;;;;0.57;0.47;;;8.60;98.50;;;;;;5127888;27;20753;-70